Flight Track Log - Related Links

Times and Time Zones

All times are in EDT time to prevent confusion due to time zone crossing. See the KAP17 flight status page for this flight to view local times or setup timezone preferences in your user account.

Time Position Orientation Groundspeed Altitude Reporting Facility
EDT Latitude Longitude Course Direction KTS MPH feet Rate Location/Type
Tue 08:54:30 AM 42.3667 -71.0167 270° West 103 119 500  Level KA90
Tue 08:55:56 AM 42.3667 -71.0667 270° West 114 131 1,700 809 Climbing KA90
Tue 08:56:51 AM 42.3667 -71.1000 270° West 126 145 2,400 783 Climbing KA90
Tue 08:57:51 AM 42.3833 -71.1500 294° West 131 151 3,200 800 Climbing KA90
Tue 08:58:51 AM 42.4000 -71.2000 294° West 126 145 4,000 789 Climbing KA90
Tue 08:59:45 AM 42.4167 -71.2333 304° West 129 148 4,700 737 Climbing KA90
Tue 09:00:45 AM 42.4667 -71.2333 360° North 140 161 5,400 558 Climbing KA90
Tue 09:01:54 AM 42.5167 -71.2500 346° North 149 171 5,900 290 Climbing KA90
Tue 09:02:49 AM 42.5500 -71.2667 340° North 175 201 6,000 51 Climbing KA90
Tue 09:03:51 AM 42.6000 -71.2833 346° North 172 198 6,000 -48 Level KA90
Tue 09:04:54 AM 42.6500 -71.3000 346° North 170 196 5,900 -53 Descending KA90
Tue 09:05:45 AM 42.6833 -71.3000 360° North 169 194 5,900  Level KA90
Tue 09:06:48 AM 42.7333 -71.3167 346° North 170 196 5,900  Level KA90
Tue 09:07:42 AM 42.7833 -71.3333 346° North 171 197 5,900 56 Level KA90
Tue 09:08:36 AM 42.8167 -71.3500 340° North 166 191 6,000 49 Climbing KA90
Tue 09:09:45 AM 42.8667 -71.3667 346° North 176 203 6,000 -48 Level KA90
Tue 09:10:42 AM 42.9000 -71.4167 312° West 164 189 5,900 -49 Descending KA90
Tue 09:11:48 AM 42.9333 -71.4500 324° Northwest 162 186 5,900 48 Level KA90
Tue 09:12:48 AM 42.9667 -71.5000 312° West 164 189 6,000 50 Climbing KA90
Tue 09:13:48 AM 43.0000 -71.5333 324° Northwest 164 189 6,000 -50 Level KA90
Tue 09:14:48 AM 43.0333 -71.5833 312° West 165 190 5,900 -54 Descending KA90
Tue 09:15:39 AM 43.0667 -71.6167 324° Northwest 165 190 5,900  Level KA90
Tue 09:16:42 AM 43.1000 -71.6500 324° Northwest 167 192 5,900  Level KA90
Tue 09:17:26 AM 43.1336 -71.6947 316° Northwest 180 207 5,900  Level Boston Center
Tue 09:18:26 AM 43.1653 -71.7342 318° Northwest 172 198 5,900 50 Level Boston Center
Tue 09:19:26 AM 43.2008 -71.7764 319° Northwest 166 191 6,000 50 Climbing Boston Center
Tue 09:20:27 AM 43.2322 -71.8189 315° West 160 184 6,000  Level Boston Center
Tue 09:21:26 AM 43.2681 -71.8614 319° Northwest 166 191 6,000  Level Boston Center
Tue 09:22:26 AM 43.3017 -71.9039 317° Northwest 166 191 6,000  Level Boston Center
Tue 09:23:26 AM 43.3372 -71.9464 319° Northwest 166 191 6,000 -50 Level Boston Center
Tue 09:24:26 AM 43.3706 -71.9861 319° Northwest 166 191 5,900 -99 Descending Boston Center
Tue 09:25:27 AM 43.4019 -72.0258 317° Northwest 166 191 5,800 -350 Descending Boston Center
Tue 09:26:26 AM 43.4417 -72.0628 326° Northwest 172 198 5,200 -655 Descending Boston Center
Tue 09:27:26 AM 43.4856 -72.0939 333° Northwest 177 204 4,500 -700 Descending Boston Center

Login

Don't have an account? Register now (free) for customized features, flight alerts, and more!